createdAt,value
2023-01-08T00:03:42.851Z,44.72
2023-01-08T00:11:01.396Z,41.25
2023-01-08T00:18:21.378Z,42.50
2023-01-08T00:25:43.237Z,38.50
2023-01-08T00:33:01.419Z,40.97
2023-01-08T00:40:21.105Z,43.20
2023-01-08T00:47:39.404Z,43.88
2023-01-08T00:54:57.555Z,42.85
2023-01-08T01:02:17.240Z,46.33
2023-01-08T01:09:35.421Z,50.28
2023-01-08T01:16:53.725Z,48.55
2023-01-08T01:24:14.399Z,47.45
2023-01-08T01:31:33.650Z,47.08
2023-01-08T01:38:53.800Z,47.38
2023-01-08T01:46:22.300Z,47.28
2023-01-08T01:53:44.123Z,45.20
2023-01-08T02:01:07.334Z,44.47
2023-01-08T02:15:51.274Z,39.60
2023-01-08T02:23:23.215Z,41.97
2023-01-08T02:30:43.570Z,42.42
2023-01-08T02:38:01.787Z,42.00
2023-01-08T02:45:28.009Z,43.10
2023-01-08T02:52:54.136Z,43.60
2023-01-08T03:00:13.919Z,42.30
2023-01-08T03:07:32.239Z,43.33
2023-01-08T03:14:56.042Z,43.00
2023-01-08T03:22:17.157Z,43.85
2023-01-08T03:29:35.981Z,46.10
2023-01-08T03:36:57.254Z,47.92
2023-01-08T03:44:15.994Z,46.60
2023-01-08T03:51:41.872Z,45.65
2023-01-08T03:59:01.414Z,47.55
2023-01-08T04:06:19.517Z,53.22
2023-01-08T04:13:37.972Z,57.65
2023-01-08T04:20:57.546Z,53.22
2023-01-08T04:28:15.844Z,53.50
2023-01-08T04:35:34.033Z,48.85
2023-01-08T04:42:53.671Z,51.00
2023-01-08T04:50:11.975Z,48.17
2023-01-08T04:57:30.264Z,49.95
2023-01-08T05:04:50.405Z,49.28
2023-01-08T05:12:08.708Z,49.35
2023-01-08T05:19:26.948Z,47.17
2023-01-08T05:26:46.548Z,51.22
2023-01-08T05:34:04.718Z,50.33
2023-01-08T05:41:23.724Z,47.13
2023-01-08T05:48:43.729Z,43.47
2023-01-08T05:56:07.163Z,43.78
2023-01-08T06:03:26.425Z,39.08
2023-01-08T06:10:46.853Z,41.20
2023-01-08T06:18:05.393Z,42.38
2023-01-08T06:25:23.726Z,40.85
2023-01-08T06:32:43.309Z,38.95
2023-01-08T06:40:01.504Z,40.38
2023-01-08T06:47:19.769Z,39.72
2023-01-08T06:54:42.656Z,38.63
2023-01-08T07:02:01.017Z,37.45
2023-01-08T07:09:19.297Z,37.88
2023-01-08T07:16:39.132Z,34.67
2023-01-08T07:23:57.222Z,33.92
2023-01-08T07:31:15.552Z,34.50
2023-01-08T07:38:35.755Z,33.58
2023-01-08T07:45:54.581Z,31.90
2023-01-08T07:53:13.795Z,31.63
2023-01-08T08:00:33.801Z,31.33
2023-01-08T08:07:52.136Z,30.73
2023-01-08T08:15:11.744Z,32.13
2023-01-08T08:22:31.448Z,33.50
2023-01-08T08:29:49.750Z,32.88
2023-01-08T08:37:09.032Z,30.60
2023-01-08T08:44:28.565Z,27.70
2023-01-08T08:51:46.891Z,25.08
2023-01-08T08:59:05.117Z,22.00
2023-01-08T09:06:27.598Z,20.83
2023-01-08T09:13:45.960Z,19.03
2023-01-08T09:21:07.595Z,17.98
2023-01-08T09:28:31.119Z,19.60
2023-01-08T09:35:49.633Z,18.00
2023-01-08T09:43:11.767Z,16.60
2023-01-08T09:50:33.173Z,17.27
2023-01-08T09:57:51.898Z,16.67
2023-01-08T10:05:14.185Z,14.82
2023-01-08T10:12:34.900Z,12.93
2023-01-08T10:19:53.114Z,15.18
2023-01-08T10:27:16.828Z,13.13
2023-01-08T10:34:44.616Z,13.93
2023-01-08T10:42:06.915Z,14.00
2023-01-08T10:49:32.024Z,11.32
2023-01-08T10:56:51.774Z,11.00
2023-01-08T11:04:22.764Z,9.75
2023-01-08T11:11:41.288Z,9.95
2023-01-08T11:19:01.026Z,9.25
2023-01-08T11:26:22.471Z,10.55
2023-01-08T11:33:41.974Z,12.32
2023-01-08T11:41:11.265Z,12.43
2023-01-08T11:48:39.128Z,13.07
2023-01-08T11:56:08.012Z,15.23
2023-01-08T12:03:33.198Z,10.90
2023-01-08T12:11:00.502Z,10.18
2023-01-08T12:18:31.325Z,9.25
2023-01-08T12:26:05.061Z,8.60
2023-01-08T12:33:34.170Z,9.60
2023-01-08T12:40:55.241Z,10.13
2023-01-08T12:48:16.841Z,12.05
2023-01-08T12:55:43.911Z,10.32
2023-01-08T13:03:04.356Z,10.57
2023-01-08T13:10:28.231Z,6.78
2023-01-08T13:17:49.561Z,10.48
2023-01-08T13:25:36.022Z,10.45
2023-01-08T13:32:56.065Z,11.48
2023-01-08T13:40:39.731Z,11.13
2023-01-08T13:55:19.144Z,12.00
2023-01-08T14:02:50.331Z,11.85
2023-01-08T14:10:15.291Z,11.10
2023-01-08T14:17:34.040Z,11.43
2023-01-08T14:24:56.517Z,12.13
2023-01-08T14:32:19.207Z,12.20
2023-01-08T14:39:38.594Z,13.73
2023-01-08T14:46:57.143Z,12.75
2023-01-08T14:54:20.000Z,14.20
2023-01-08T15:01:38.559Z,13.57
2023-01-08T15:08:57.544Z,13.07
2023-01-08T15:16:20.732Z,12.50
2023-01-08T15:23:41.785Z,15.18
2023-01-08T15:31:00.035Z,14.30
2023-01-08T15:38:23.772Z,15.73
2023-01-08T15:45:43.567Z,17.10
2023-01-08T15:53:02.682Z,18.23
2023-01-08T16:00:22.943Z,16.90
2023-01-08T16:07:41.228Z,18.10
2023-01-08T16:14:59.491Z,18.25
2023-01-08T16:22:19.140Z,17.58
2023-01-08T16:29:37.334Z,17.42
2023-01-08T16:36:55.584Z,17.98
2023-01-08T16:44:20.370Z,17.83
2023-01-08T16:51:41.246Z,19.88
2023-01-08T16:58:59.574Z,16.52
2023-01-08T17:06:19.261Z,16.73
2023-01-08T17:13:37.816Z,17.33
2023-01-08T17:20:56.365Z,18.95
2023-01-08T17:28:16.000Z,17.40
2023-01-08T17:35:34.213Z,18.00
2023-01-08T17:42:52.523Z,18.23
2023-01-08T17:50:13.138Z,16.90
2023-01-08T17:57:31.783Z,16.63
2023-01-08T18:04:50.176Z,17.17
2023-01-08T18:12:10.212Z,16.00
2023-01-08T18:19:28.445Z,15.50
2023-01-08T18:26:46.738Z,16.58
2023-01-08T18:34:06.353Z,32.58
2023-01-08T18:41:42.262Z,16.45
2023-01-08T18:49:00.471Z,17.50
2023-01-08T18:56:22.822Z,17.55
2023-01-08T19:03:40.983Z,18.10
2023-01-08T19:10:59.278Z,18.02
2023-01-08T19:18:18.887Z,18.25
2023-01-08T19:25:39.878Z,19.02
2023-01-08T19:32:58.037Z,20.77
2023-01-08T19:40:17.923Z,19.70
2023-01-08T19:47:36.111Z,21.33
2023-01-08T19:54:55.247Z,19.75
2023-01-08T20:02:14.994Z,24.95
2023-01-08T20:09:34.987Z,22.85
2023-01-08T20:16:54.466Z,24.42
2023-01-08T20:24:14.842Z,22.25
2023-01-08T20:31:35.187Z,20.02
2023-01-08T20:38:54.918Z,22.13
2023-01-08T20:46:14.923Z,25.00
2023-01-08T20:53:35.266Z,25.35
2023-01-08T21:00:54.052Z,27.38
2023-01-08T21:08:13.711Z,30.83
2023-01-08T21:15:32.022Z,28.65
2023-01-08T21:22:50.245Z,28.67
2023-01-08T21:30:11.749Z,28.15
2023-01-08T21:37:31.491Z,31.75
2023-01-08T21:45:07.277Z,31.52
2023-01-08T21:52:44.257Z,28.65
2023-01-08T22:00:02.533Z,29.55
2023-01-08T22:07:22.814Z,30.10
2023-01-08T22:14:42.544Z,28.73
2023-01-08T22:22:00.785Z,30.40
2023-01-08T22:29:18.986Z,32.25
2023-01-08T22:36:38.881Z,29.88
2023-01-08T22:43:57.937Z,32.75
2023-01-08T22:51:16.132Z,33.40
2023-01-08T22:58:35.771Z,29.05
2023-01-08T23:06:02.109Z,25.55
2023-01-08T23:13:20.222Z,25.67
2023-01-08T23:20:39.868Z,25.83
2023-01-08T23:27:57.969Z,26.15
2023-01-08T23:35:16.319Z,29.02
2023-01-08T23:42:35.804Z,28.90
2023-01-08T23:49:54.059Z,29.80
2023-01-08T23:57:12.502Z,31.63
